Time;durP1;ratioP1;P1;durP2;ratioP2;P2;SDS_P1;SDS_P2;PMS_P1;PMS_P2;Temp;Humidity;BMP_temperature;BMP_pressure;BME280_temperature;BME280_humidity;BME280_pressure;Samples;Min_cycle;Max_cycle;Signal;HPM_P1;HPM_P2
2022/09/12 00:01:24;;;;;;;15.65;8.75;;;;;;;15.02;100.00;99910.88;12187299;19;20014;-79
2022/09/12 00:05:27;;;;;;;19.38;8.75;;;;;;;15.01;100.00;99909.19;12207740;19;20460;-79
2022/09/12 00:09:29;;;;;;;;;;;;;;;15.00;100.00;99899.19;12186940;19;20014;-79
2022/09/12 00:13:32;;;;;;;16.20;7.70;;;;;;;14.97;100.00;99905.31;12208763;19;19911;-79
2022/09/12 00:17:40;;;;;;;19.45;8.43;;;;;;;14.97;100.00;99898.94;12208836;19;20014;-79
2022/09/12 00:21:46;;;;;;;17.83;8.27;;;;;;;14.96;100.00;99898.09;12184386;19;20045;-79
2022/09/12 00:25:48;;;;;;;14.67;9.03;;;;;;;14.96;100.00;99895.31;12206603;19;20007;-78
2022/09/12 00:29:53;;;;;;;16.02;8.32;;;;;;;14.96;100.00;99898.09;12204545;19;20011;-78
2022/09/12 00:33:59;;;;;;;13.77;8.10;;;;;;;14.95;100.00;99888.09;12187983;19;20010;-79
2022/09/12 00:38:03;;;;;;;15.30;8.18;;;;;;;14.94;100.00;99896.72;12207478;19;20017;-78
2022/09/12 00:42:05;;;;;;;14.38;8.95;;;;;;;14.88;100.00;99889.50;12186331;19;20019;-82
2022/09/12 00:46:30;;;;;;;14.40;8.98;;;;;;;14.82;100.00;99885.88;12201828;19;20539;-81
2022/09/12 00:50:40;;;;;;;14.57;8.82;;;;;;;14.74;100.00;99892.78;12204677;19;20018;-81
2022/09/12 00:54:51;;;;;;;13.30;8.52;;;;;;;14.69;100.00;99884.47;12183375;19;20178;-80
2022/09/12 00:59:04;;;;;;;11.63;7.70;;;;;;;14.61;100.00;99884.19;12205270;19;20022;-80
2022/09/12 01:03:13;;;;;;;14.73;8.43;;;;;;;14.53;100.00;99877.22;12185891;19;20783;-81
2022/09/12 01:07:18;;;;;;;14.82;8.45;;;;;;;14.48;100.00;99883.56;12201144;19;20007;-81
2022/09/12 01:11:22;;;;;;;12.27;7.80;;;;;;;14.46;100.00;99888.56;12205441;19;20765;-81
2022/09/12 01:15:29;;;;;;;13.85;8.20;;;;;;;14.40;100.00;99897.16;12182702;19;20011;-80
2022/09/12 01:20:10;;;;;;;14.23;8.43;;;;;;;14.28;100.00;99892.66;12200144;19;20010;-81
2022/09/12 01:24:43;;;;;;;15.43;9.10;;;;;;;14.23;100.00;99889.03;12184404;19;20014;-81
2022/09/12 01:29:00;;;;;;;15.15;8.48;;;;;;;14.20;100.00;99881.28;12203475;19;20019;-81
2022/09/12 01:33:37;;;;;;;19.60;8.65;;;;;;;14.14;100.00;99881.25;12189350;19;20003;-80
2022/09/12 01:38:07;;;;;;;15.52;8.63;;;;;;;14.11;100.00;99869.88;12213338;19;20011;-81
2022/09/12 01:42:16;;;;;;;13.43;8.38;;;;;;;14.07;100.00;99869.59;12194862;19;20013;-81
2022/09/12 01:46:28;;;;;;;15.32;8.45;;;;;;;14.02;100.00;99875.13;12213630;19;20010;-81
2022/09/12 01:50:42;;;;;;;17.00;9.15;;;;;;;14.01;100.00;99872.59;12218192;19;20010;-80
2022/09/12 01:54:56;;;;;;;16.40;8.73;;;;;;;14.00;100.00;99863.47;12196309;19;20034;-80
2022/09/12 01:59:15;;;;;;;19.10;9.45;;;;;;;13.95;100.00;99862.59;12214932;19;20480;-80
2022/09/12 02:03:26;;;;;;;15.50;8.43;;;;;;;13.92;100.00;99861.25;12195018;19;20014;-81
2022/09/12 02:07:51;;;;;;;13.95;8.15;;;;;;;13.91;100.00;99860.38;12215180;19;20043;-81
2022/09/12 02:12:02;;;;;;;16.63;9.05;;;;;;;13.88;100.00;99855.38;12238066;19;20010;-80
2022/09/12 02:16:13;;;;;;;16.33;9.18;;;;;;;13.88;100.00;99849.84;12244822;19;20072;-78
2022/09/12 02:20:40;;;;;;;;;;;;;;;13.87;100.00;99842.66;12237169;19;20698;-80
2022/09/12 02:24:54;;;;;;;16.08;8.40;;;;;;;13.85;100.00;99844.84;12199948;19;19911;-81
2022/09/12 02:28:57;;;;;;;16.88;9.30;;;;;;;13.86;100.00;99853.97;12218906;19;20484;-80
2022/09/12 02:33:11;;;;;;;17.27;9.98;;;;;;;13.89;100.00;99856.22;12224169;19;20010;-80
2022/09/12 02:37:28;;;;;;;20.85;10.43;;;;;;;13.89;100.00;99845.97;12197351;19;20003;-82
2022/09/12 02:41:31;;;;;;;19.45;10.40;;;;;;;13.89;100.00;99850.66;12245783;19;20006;-79
2022/09/12 02:45:35;;;;;;;18.33;10.52;;;;;;;13.91;100.00;99845.69;12243084;19;20010;-80
2022/09/12 02:49:39;;;;;;;17.90;9.27;;;;;;;13.93;100.00;99837.97;12265962;19;20042;-79
2022/09/12 02:53:50;;;;;;;17.67;10.27;;;;;;;13.93;100.00;99840.72;12234753;19;20344;-80
2022/09/12 02:57:52;;;;;;;16.80;9.65;;;;;;;13.90;100.00;99844.03;12191486;19;20015;-80
2022/09/12 03:02:14;;;;;;;13.95;9.05;;;;;;;13.90;100.00;99841.28;12211585;19;20040;-80
2022/09/12 03:06:53;;;;;;;21.35;9.77;;;;;;;13.91;100.00;99848.47;12186499;19;20035;-80
2022/09/12 03:11:45;;;;;;;16.33;9.60;;;;;;;13.90;100.00;99842.09;12212537;19;20029;-81
2022/09/12 03:15:53;;;;;;;17.88;10.00;;;;;;;13.92;100.00;99841.84;12187638;19;21709;-80
2022/09/12 03:20:08;;;;;;;21.00;10.75;;;;;;;13.91;100.00;99843.75;12213047;19;20067;-81
2022/09/12 03:24:45;;;;;;;20.07;10.10;;;;;;;13.94;100.00;99839.63;12189990;19;20007;-81
2022/09/12 03:28:53;;;;;;;18.40;9.85;;;;;;;13.91;100.00;99838.22;12208882;19;20657;-80
2022/09/12 03:32:55;;;;;;;25.30;12.52;;;;;;;13.90;100.00;99832.97;12210310;19;20007;-80
2022/09/12 03:36:57;;;;;;;20.90;10.90;;;;;;;13.90;100.00;99835.72;12185186;19;20030;-80
2022/09/12 03:41:00;;;;;;;19.43;10.57;;;;;;;13.88;100.00;99841.53;12209100;19;20010;-81
2022/09/12 03:45:05;;;;;;;21.75;10.50;;;;;;;13.85;100.00;99839.31;12207841;19;20364;-80
2022/09/12 03:49:13;;;;;;;18.92;11.32;;;;;;;13.85;100.00;99833.75;12186016;19;20690;-80
2022/09/12 03:53:18;;;;;;;24.45;11.90;;;;;;;13.85;100.00;99828.22;12207902;19;20007;-80
2022/09/12 03:57:21;;;;;;;29.98;12.95;;;;;;;13.85;100.00;99827.41;12184880;19;20030;-80
2022/09/12 04:01:23;;;;;;;25.48;11.27;;;;;;;13.83;100.00;99829.59;12205459;19;20499;-81
2022/09/12 04:05:26;;;;;;;30.57;13.37;;;;;;;13.81;100.00;99829.06;12206242;19;20011;-80
2022/09/12 04:09:29;;;;;;;29.23;13.47;;;;;;;13.78;100.00;99822.13;12188223;19;20471;-81
2022/09/12 04:13:37;;;;;;;34.65;14.98;;;;;;;13.76;100.00;99823.47;12207707;19;20245;-81
2022/09/12 04:17:39;;;;;;;31.08;14.63;;;;;;;13.72;100.00;99825.13;12206642;19;20015;-81
2022/09/12 04:21:44;;;;;;;35.60;15.23;;;;;;;13.70;100.00;99824.56;12184479;19;20011;-81
2022/09/12 04:26:01;;;;;;;32.22;15.32;;;;;;;13.70;100.00;99825.41;12207224;19;20110;-80
2022/09/12 04:30:04;;;;;;;36.83;16.23;;;;;;;13.67;100.00;99829.53;12208428;19;20010;-80
2022/09/12 04:34:06;;;;;;;30.52;14.57;;;;;;;13.65;100.00;99826.22;12184721;19;20491;-82
2022/09/12 04:38:11;;;;;;;32.30;14.02;;;;;;;13.64;100.00;99832.00;12204126;19;20020;-82
2022/09/12 04:42:13;;;;;;;30.45;13.23;;;;;;;13.57;100.00;99832.25;12186159;19;20007;-81
2022/09/12 04:46:19;;;;;;;24.05;14.00;;;;;;;13.53;100.00;99835.81;12204786;19;20010;-81
2022/09/12 04:50:21;;;;;;;32.10;13.85;;;;;;;13.51;100.00;99838.06;12205845;19;20094;-82
2022/09/12 04:54:27;;;;;;;27.67;13.07;;;;;;;13.50;100.00;99831.66;12183527;19;20030;-81
2022/09/12 04:58:32;;;;;;;27.15;14.15;;;;;;;13.50;100.00;99837.19;12203024;19;20045;-82
2022/09/12 05:02:37;;;;;;;34.08;15.50;;;;;;;13.50;100.00;99831.66;12203777;19;20353;-81
2022/09/12 05:06:46;;;;;;;32.88;14.77;;;;;;;13.44;100.00;99829.97;12179795;19;20014;-82
2022/09/12 05:10:53;;;;;;;29.98;13.57;;;;;;;13.38;100.00;99840.16;12206759;19;20007;-81
2022/09/12 05:15:01;;;;;;;30.30;13.68;;;;;;;13.32;100.00;99830.16;12214902;19;20013;-81
2022/09/12 05:19:06;;;;;;;32.65;14.55;;;;;;;13.33;100.00;99837.41;12194573;19;20025;-80
2022/09/12 05:23:08;;;;;;;30.85;14.18;;;;;;;13.38;100.00;99844.88;12215935;19;20400;-81
2022/09/12 05:27:14;;;;;;;36.60;15.93;;;;;;;13.42;100.00;99837.72;12190093;19;20018;-80
2022/09/12 05:31:27;;;;;;;38.55;15.45;;;;;;;13.48;100.00;99838.59;12215998;19;20007;-80
2022/09/12 05:35:29;;;;;;;43.40;17.38;;;;;;;13.52;100.00;99840.53;12214106;19;20074;-81
2022/09/12 05:39:31;;;;;;;44.88;16.83;;;;;;;13.59;100.00;99846.69;12195690;19;20022;-81
2022/09/12 05:43:38;;;;;;;43.25;18.65;;;;;;;13.64;100.00;99837.56;12215098;19;20006;-81
2022/09/12 05:47:45;;;;;;;54.25;18.65;;;;;;;13.70;100.00;99843.94;12216692;19;20074;-82
2022/09/12 05:51:50;;;;;;;52.97;20.08;;;;;;;13.74;100.00;99853.38;12192130;19;20017;-81
2022/09/12 05:56:25;;;;;;;50.92;18.98;;;;;;;13.77;100.00;99852.84;12212268;19;20007;-81
2022/09/12 06:00:29;;;;;;;47.15;18.65;;;;;;;13.81;100.00;99853.97;12184546;19;20034;-81
2022/09/12 06:04:44;;;;;;;42.72;18.35;;;;;;;13.86;100.00;99848.44;12191781;19;20018;-80
2022/09/12 06:09:00;;;;;;;43.28;17.38;;;;;;;13.90;100.00;99852.34;12215636;19;20011;-80
2022/09/12 06:13:05;;;;;;;37.58;17.42;;;;;;;13.94;100.00;99849.88;12179985;19;20010;-80
2022/09/12 06:17:21;;;;;;;40.00;16.27;;;;;;;13.98;100.00;99850.97;12200613;19;20437;-81
2022/09/12 06:21:30;;;;;;;37.08;15.98;;;;;;;14.09;100.00;99842.44;12210232;19;20006;-80
2022/09/12 06:25:44;;;;;;;37.30;15.40;;;;;;;14.18;100.00;99837.19;12183362;19;20014;-81
2022/09/12 06:29:47;;;;;;;33.17;15.18;;;;;;;14.28;100.00;99833.63;12191078;19;20677;-80
2022/09/12 06:33:53;;;;;;;34.20;14.25;;;;;;;14.39;100.00;99834.47;12211465;19;20010;-80
2022/09/12 06:38:03;;;;;;;31.42;15.05;;;;;;;14.49;100.00;99831.72;12211305;19;20462;-80
2022/09/12 06:42:08;;;;;;;33.40;14.25;;;;;;;14.62;100.00;99835.94;12192773;19;20023;-80
2022/09/12 06:46:11;;;;;;;31.40;13.63;;;;;;;14.76;100.00;99828.72;12208814;19;20029;-80
2022/09/12 06:50:25;;;;;;;25.85;14.00;;;;;;;14.91;100.00;99833.44;12208903;19;20344;-80
2022/09/12 06:54:28;;;;;;;34.13;15.27;;;;;;;15.08;100.00;99828.44;12196016;19;20510;-80
2022/09/12 06:58:39;;;;;;;27.47;14.83;;;;;;;15.26;100.00;99830.63;12213269;19;20336;-81
2022/09/12 07:02:53;;;;;;;26.02;12.77;;;;;;;15.47;100.00;99830.59;12188851;19;20086;-80
2022/09/12 07:07:08;;;;;;;19.57;11.67;;;;;;;15.74;100.00;99821.91;12055879;19;3114894;-81
2022/09/12 07:11:17;;;;;;;21.83;11.93;;;;;;;16.03;100.00;99821.22;12217948;19;20011;-81
2022/09/12 07:15:19;;;;;;;18.52;10.60;;;;;;;16.32;100.00;99813.81;12190401;19;20014;-79
2022/09/12 07:19:25;;;;;;;17.20;10.50;;;;;;;16.59;100.00;99820.88;12212761;19;20699;-78
2022/09/12 07:23:30;;;;;;;19.45;9.70;;;;;;;16.93;100.00;99826.47;12215608;19;20011;-77
2022/09/12 07:27:39;;;;;;;19.10;9.23;;;;;;;17.29;100.00;99821.41;12187937;19;20025;-78
2022/09/12 07:31:42;;;;;;;15.60;9.77;;;;;;;17.67;100.00;99824.34;12213285;19;20014;-78
2022/09/12 07:35:59;;;;;;;15.82;9.13;;;;;;;18.00;100.00;99827.31;12189333;19;20018;-78
2022/09/12 07:40:02;;;;;;;12.20;8.23;;;;;;;18.34;100.00;99812.34;12214808;19;20383;-78
2022/09/12 07:44:06;;;;;;;13.65;8.38;;;;;;;18.63;100.00;99815.78;12213422;19;20014;-79
2022/09/12 07:48:10;;;;;;;15.63;7.80;;;;;;;19.06;100.00;99823.19;12198952;19;20459;-81
2022/09/12 07:52:14;;;;;;;10.55;7.93;;;;;;;19.42;100.00;99819.75;12217348;19;20010;-80
2022/09/12 07:56:23;;;;;;;11.18;7.63;;;;;;;19.79;100.00;99811.22;12216380;19;20093;-81
2022/09/12 08:00:34;;;;;;;10.85;7.28;;;;;;;20.14;100.00;99813.59;12195208;19;20551;-81
2022/09/12 08:04:37;;;;;;;9.50;6.72;;;;;;;20.17;89.63;99807.34;12216598;19;20010;-82
2022/09/12 08:08:47;;;;;;;9.35;7.13;;;;;;;20.46;92.65;99818.13;12196975;19;20011;-81
2022/09/12 08:12:50;;;;;;;8.60;6.90;;;;;;;20.72;89.23;99818.41;12226941;19;20033;-79
2022/09/12 08:16:52;;;;;;;11.52;7.47;;;;;;;20.93;85.51;99827.94;12223489;19;20015;-79
2022/09/12 08:21:01;;;;;;;10.05;6.80;;;;;;;21.07;80.37;99829.88;12192861;19;20093;-79
2022/09/12 08:25:04;;;;;;;8.68;6.53;;;;;;;21.32;82.67;99826.38;12215188;19;20623;-79
2022/09/12 08:29:20;;;;;;;9.20;6.78;;;;;;;21.43;81.17;99831.75;12214683;19;20011;-79
2022/09/12 08:33:26;;;;;;;9.15;6.60;;;;;;;21.66;80.40;99829.72;12196255;19;20010;-79
2022/09/12 08:37:31;;;;;;;10.73;5.78;;;;;;;21.92;78.63;99824.19;12214055;19;20003;-80
2022/09/12 08:41:46;;;;;;;11.30;6.05;;;;;;;22.07;74.18;99824.59;12218111;19;20010;-79
2022/09/12 08:46:04;;;;;;;9.98;6.63;;;;;;;22.23;73.73;99818.53;12190665;19;20086;-80
2022/09/12 08:50:07;;;;;;;9.98;6.28;;;;;;;22.53;73.17;99817.56;12215574;19;20003;-79
2022/09/12 08:54:20;;;;;;;8.40;6.07;;;;;;;22.76;71.24;99806.19;12192855;19;20014;-80
2022/09/12 08:58:28;;;;;;;10.75;6.95;;;;;;;22.99;71.25;99815.25;12220183;19;20006;-80
2022/09/12 09:02:49;;;;;;;9.15;5.78;;;;;;;23.14;70.24;99826.00;12215733;19;20021;-80
2022/09/12 09:07:28;;;;;;;9.05;6.70;;;;;;;23.34;70.12;99818.00;12190851;19;20486;-80
2022/09/12 09:11:51;;;;;;;10.50;6.90;;;;;;;23.50;65.77;99813.50;12214809;19;20085;-80
2022/09/12 09:16:14;;;;;;;8.20;5.57;;;;;;;23.70;64.85;99809.13;12191592;19;20034;-81
2022/09/12 09:20:56;;;;;;;8.60;5.38;;;;;;;23.88;63.75;99807.03;12213282;19;20031;-79
2022/09/12 09:25:10;;;;;;;9.38;6.10;;;;;;;23.83;57.58;99807.25;12191007;19;20102;-80
2022/09/12 09:29:21;;;;;;;7.82;5.32;;;;;;;23.93;58.03;99806.88;12213692;19;20011;-80
2022/09/12 09:33:33;;;;;;;6.97;5.22;;;;;;;24.14;58.01;99809.72;12193070;19;20118;-81
2022/09/12 09:37:42;;;;;;;8.10;5.53;;;;;;;24.40;57.84;99815.19;12212676;19;20471;-80
2022/09/12 09:42:08;;;;;;;7.43;5.63;;;;;;;24.28;56.90;99815.09;12192625;19;20013;-81
2022/09/12 09:46:12;;;;;;;9.35;5.93;;;;;;;23.99;58.30;99811.13;12211671;19;20388;-80
2022/09/12 09:50:16;;;;;;;8.05;4.85;;;;;;;23.89;59.16;99803.09;12214670;19;20014;-80
2022/09/12 09:54:34;;;;;;;;;;;;;;;24.15;58.52;99810.53;12191630;19;20007;-81
2022/09/12 09:58:40;;;;;;;8.45;6.10;;;;;;;24.32;58.46;99794.34;12220778;19;19910;-81
2022/09/12 10:02:42;;;;;;;;;;;;;;;24.63;59.20;99787.53;12206034;19;20482;-81
2022/09/12 10:06:50;;;;;;;6.82;5.35;;;;;;;24.58;58.93;99790.53;12223026;19;19919;-82
2022/09/12 10:11:03;;;;;;;10.95;5.95;;;;;;;24.55;58.78;99794.88;12222376;19;20002;-80
2022/09/12 10:15:26;;;;;;;11.27;5.93;;;;;;;24.48;58.34;99790.94;12201808;19;20011;-77
2022/09/12 10:19:44;;;;;;;9.85;7.15;;;;;;;24.21;59.31;99792.28;12218954;19;20086;-80
2022/09/12 10:24:24;;;;;;;13.90;7.03;;;;;;;24.01;60.22;99791.91;12197811;19;20468;-80
2022/09/12 10:28:44;;;;;;;9.95;6.72;;;;;;;24.17;60.71;99796.94;12220755;19;20011;-80
2022/09/12 10:32:49;;;;;;;9.75;6.40;;;;;;;24.20;60.14;99787.81;12195844;19;20035;-80
2022/09/12 10:37:11;;;;;;;10.10;7.03;;;;;;;24.31;61.89;99778.63;12217481;19;20119;-80
2022/09/12 10:41:18;;;;;;;9.57;5.90;;;;;;;24.29;60.16;99788.59;12222474;19;20018;-81
2022/09/12 10:45:37;;;;;;;9.98;6.75;;;;;;;24.39;59.84;99778.91;12197277;19;20010;-80
2022/09/12 10:49:39;;;;;;;12.57;8.00;;;;;;;24.53;58.87;99766.22;12216272;19;20015;-80
2022/09/12 10:53:45;;;;;;;10.23;6.85;;;;;;;24.34;57.99;99763.88;12221078;19;20019;-79
2022/09/12 10:58:28;;;;;;;10.35;6.63;;;;;;;24.41;60.10;99757.69;12196521;19;20007;-80
2022/09/12 11:02:35;;;;;;;8.95;6.20;;;;;;;25.18;58.99;99754.50;12221759;19;20010;-80
2022/09/12 11:06:46;;;;;;;9.23;6.22;;;;;;;26.03;54.16;99750.09;12195218;19;20029;-80
2022/09/12 11:10:59;;;;;;;9.68;6.05;;;;;;;26.53;52.41;99743.16;12218089;19;20102;-80
2022/09/12 11:15:18;;;;;;;10.13;6.65;;;;;;;26.73;50.55;99741.31;12198497;19;20008;-81
2022/09/12 11:19:53;;;;;;;9.63;6.07;;;;;;;27.00;48.95;99746.13;12220482;19;20392;-81
2022/09/12 11:24:04;;;;;;;8.27;6.10;;;;;;;27.45;48.72;99744.09;12197847;19;20498;-80
2022/09/12 11:28:19;;;;;;;9.82;5.38;;;;;;;27.63;48.13;99753.03;12213631;19;20010;-80
2022/09/12 11:32:36;;;;;;;8.40;5.65;;;;;;;27.56;45.76;99750.84;12216105;19;20519;-80
2022/09/12 11:37:02;;;;;;;8.27;6.43;;;;;;;27.90;45.29;99737.13;12201966;19;20074;-81
2022/09/12 11:41:26;;;;;;;7.00;5.53;;;;;;;28.07;45.11;99736.72;12220381;19;20020;-81
2022/09/12 11:45:37;;;;;;;6.70;5.32;;;;;;;28.35;44.53;99722.41;12198382;19;20014;-80
2022/09/12 11:49:49;;;;;;;7.95;5.28;;;;;;;28.99;43.59;99707.88;12235232;19;19995;-80
2022/09/12 11:54:03;;;;;;;8.30;5.83;;;;;;;29.47;41.62;99728.22;12252883;19;20015;-80
2022/09/12 11:58:10;;;;;;;8.57;6.03;;;;;;;29.29;40.24;99710.88;12268060;19;20002;-80
2022/09/12 12:02:26;;;;;;;9.10;5.90;;;;;;;29.55;40.54;99717.81;12242061;19;20010;-82
2022/09/12 12:06:51;;;;;;;5.90;5.00;;;;;;;30.03;38.90;99715.34;12200379;19;20095;-82
2022/09/12 12:11:02;;;;;;;6.57;5.25;;;;;;;30.15;37.88;99713.09;12216812;19;20006;-81
2022/09/12 12:15:15;;;;;;;7.10;5.32;;;;;;;30.64;37.24;99699.94;12193422;19;20006;-81
2022/09/12 12:19:17;;;;;;;7.50;5.03;;;;;;;31.10;36.69;99691.94;12213639;19;20029;-81
2022/09/12 12:23:24;;;;;;;7.38;5.20;;;;;;;31.53;35.87;99685.81;12215741;19;20078;-81
2022/09/12 12:28:07;;;;;;;6.07;5.18;;;;;;;31.83;34.76;99685.66;12195259;19;20017;-81
2022/09/12 12:32:27;;;;;;;6.60;5.90;;;;;;;32.48;34.23;99681.13;12218771;19;20027;-80
2022/09/12 12:36:43;;;;;;;6.75;5.63;;;;;;;33.15;32.48;99667.47;12195061;19;20014;-82
2022/09/12 12:40:49;;;;;;;5.72;4.95;;;;;;;33.02;32.03;99670.72;12220870;19;20027;-82
2022/09/12 12:44:54;;;;;;;6.55;5.50;;;;;;;33.19;31.13;99666.22;12196252;19;20030;-82
2022/09/12 12:49:16;;;;;;;6.47;5.20;;;;;;;33.34;30.59;99664.19;12217073;19;20014;-82
2022/09/12 12:53:26;;;;;;;5.80;5.30;;;;;;;33.67;30.35;99662.16;12219381;19;20018;-82
2022/09/12 12:57:57;;;;;;;6.00;5.03;;;;;;;33.68;29.99;99647.47;12189016;19;20074;-81
2022/09/12 13:02:00;;;;;;;7.25;5.13;;;;;;;33.79;30.12;99644.59;12209422;19;20015;-82
2022/09/12 13:06:08;;;;;;;5.40;4.90;;;;;;;34.03;29.91;99638.03;12195383;19;20037;-82
2022/09/12 13:10:27;;;;;;;7.75;5.47;;;;;;;34.22;29.04;99630.19;12215263;19;20006;-81
2022/09/12 13:14:45;;;;;;;5.65;4.72;;;;;;;34.17;28.88;99624.91;12212574;19;20321;-82
2022/09/12 13:18:53;;;;;;;6.93;4.57;;;;;;;32.92;29.93;99628.66;12189242;19;20507;-81
2022/09/12 13:22:57;;;;;;;6.18;4.85;;;;;;;31.76;31.08;99611.50;12207784;19;20007;-81
2022/09/12 13:27:01;;;;;;;5.90;4.30;;;;;;;30.75;32.17;99609.84;12182974;19;20102;-81
2022/09/12 13:31:29;;;;;;;5.88;4.03;;;;;;;30.27;33.82;99620.31;12208546;19;20126;-81
2022/09/12 13:36:10;;;;;;;4.70;4.25;;;;;;;30.29;33.78;99612.22;12218292;19;20010;-82
2022/09/12 13:40:32;;;;;;;6.35;4.68;;;;;;;30.74;33.07;99605.38;12123294;19;2004388;-81
2022/09/12 13:45:03;;;;;;;7.18;4.88;;;;;;;31.53;31.88;99595.53;12220900;19;20128;-82
2022/09/12 13:49:17;;;;;;;6.03;4.55;;;;;;;32.65;30.95;99596.84;12197789;19;20425;-83
2022/09/12 13:53:35;;;;;;;5.00;4.35;;;;;;;32.57;29.81;99587.47;12225108;19;20007;-82
2022/09/12 13:57:41;;;;;;;4.93;4.28;;;;;;;32.71;29.57;99591.56;12200458;19;20018;-83
2022/09/12 14:01:46;;;;;;;6.85;4.55;;;;;;;33.11;29.01;99576.94;12228121;19;20491;-83
2022/09/12 14:05:56;;;;;;;5.18;4.20;;;;;;;32.23;30.09;99579.19;12225710;19;20007;-81
2022/09/12 14:10:04;;;;;;;6.82;5.32;;;;;;;30.95;31.81;99581.22;12273110;19;20039;-81
2022/09/12 14:14:23;;;;;;;6.38;4.90;;;;;;;29.85;33.29;99576.72;12248018;19;20010;-82
2022/09/12 14:18:37;;;;;;;5.43;3.97;;;;;;;28.80;34.16;99578.31;12204975;19;20017;-83
2022/09/12 14:22:42;;;;;;;4.55;3.80;;;;;;;28.16;35.32;99567.38;12225752;19;20014;-82
2022/09/12 14:26:57;;;;;;;5.47;3.90;;;;;;;27.91;36.43;99563.22;12188714;19;20720;-81
2022/09/12 14:31:22;;;;;;;7.18;4.18;;;;;;;28.11;35.98;99562.03;12219204;19;20023;-81
2022/09/12 14:35:32;;;;;;;6.65;4.22;;;;;;;28.80;35.05;99558.47;12220931;19;20463;-81
2022/09/12 14:39:44;;;;;;;6.32;4.30;;;;;;;29.04;34.70;99558.09;12199172;19;20014;-81
2022/09/12 14:43:52;;;;;;;5.20;4.15;;;;;;;29.29;34.37;99549.13;12219709;19;20506;-82
2022/09/12 14:47:57;;;;;;;5.13;3.92;;;;;;;29.24;34.61;99549.47;12198094;19;20010;-81
2022/09/12 14:52:15;;;;;;;6.38;3.40;;;;;;;29.45;34.65;99543.31;12218400;19;20011;-81
2022/09/12 14:56:21;;;;;;;4.93;3.70;;;;;;;29.33;34.92;99533.00;12215792;19;20034;-82
2022/09/12 15:00:23;;;;;;;5.80;4.85;;;;;;;29.11;34.64;99531.03;12198188;19;20498;-81
2022/09/12 15:04:46;;;;;;;5.10;3.65;;;;;;;30.02;32.87;99517.69;12218475;19;20646;-82
2022/09/12 15:08:58;;;;;;;6.82;3.38;;;;;;;30.00;33.03;99518.06;12195698;19;20007;-81
2022/09/12 15:13:26;;;;;;;4.88;4.00;;;;;;;29.29;34.01;99517.94;12221779;19;20475;-81
2022/09/12 15:17:34;;;;;;;8.68;3.55;;;;;;;28.72;34.25;99509.31;12213977;19;20464;-81
2022/09/12 15:21:37;;;;;;;5.22;3.75;;;;;;;28.24;35.63;99514.50;12196593;19;20024;-81
2022/09/12 15:25:44;;;;;;;5.05;2.80;;;;;;;28.05;35.34;99501.22;12215001;19;20696;-80
2022/09/12 15:29:51;;;;;;;5.05;2.97;;;;;;;27.90;35.47;99500.13;12198135;19;20015;-80
2022/09/12 15:34:01;;;;;;;7.40;3.53;;;;;;;27.53;36.15;99499.72;12216768;19;20015;-79
2022/09/12 15:38:07;;;;;;;4.75;2.78;;;;;;;27.34;35.97;99494.88;12212030;19;20015;-80
2022/09/12 15:42:23;;;;;;;4.65;3.05;;;;;;;27.09;36.54;99493.44;12198323;19;20014;-79
2022/09/12 15:46:25;;;;;;;3.40;2.75;;;;;;;27.05;35.93;99487.72;12217875;19;20006;-79
2022/09/12 15:50:29;;;;;;;3.97;2.75;;;;;;;26.67;35.97;99486.38;12220501;19;20116;-80
2022/09/12 15:54:35;;;;;;;7.47;2.80;;;;;;;26.46;36.82;99478.16;12193923;19;20325;-79
2022/09/12 15:58:40;;;;;;;5.28;2.90;;;;;;;26.27;37.13;99484.56;12218553;19;20007;-79
2022/09/12 16:03:01;;;;;;;4.85;2.83;;;;;;;26.18;37.78;99478.25;12197120;19;20003;-78
2022/09/12 16:07:13;;;;;;;4.90;3.03;;;;;;;26.43;38.10;99476.06;12209427;19;20082;-78
2022/09/12 16:11:18;;;;;;;5.30;3.97;;;;;;;26.27;38.39;99463.97;12212334;19;20027;-79
2022/09/12 16:15:26;;;;;;;4.97;3.15;;;;;;;25.98;39.17;99468.03;12189357;19;20060;-78
2022/09/12 16:19:31;;;;;;;5.25;3.15;;;;;;;25.71;38.89;99464.84;12206302;19;20034;-79
2022/09/12 16:23:34;;;;;;;4.40;2.97;;;;;;;25.55;39.23;99469.59;12220191;19;20022;-78
2022/09/12 16:27:43;;;;;;;7.85;3.10;;;;;;;25.39;38.97;99470.34;12190760;19;20127;-80
2022/09/12 16:31:48;;;;;;;4.43;3.08;;;;;;;25.14;39.82;99475.25;12217462;19;20730;-79
2022/09/12 16:36:02;;;;;;;4.15;2.83;;;;;;;25.01;40.23;99482.03;12192487;19;20353;-80
2022/09/12 16:40:22;;;;;;;3.17;2.53;;;;;;;24.85;39.91;99473.50;12215957;19;20082;-79
2022/09/12 16:44:27;;;;;;;3.83;2.83;;;;;;;24.67;40.23;99466.47;12213377;19;20019;-79
2022/09/12 16:48:33;;;;;;;4.82;2.95;;;;;;;24.50;40.52;99462.72;12192617;19;20601;-79
2022/09/12 16:52:35;;;;;;;4.63;2.97;;;;;;;24.34;40.94;99456.94;12212059;19;20014;-78
2022/09/12 16:56:41;;;;;;;4.75;2.92;;;;;;;24.24;41.18;99465.84;12211105;19;20023;-79
2022/09/12 17:00:43;;;;;;;4.13;2.42;;;;;;;24.06;41.02;99465.22;12192707;19;20074;-79
2022/09/12 17:04:48;;;;;;;3.47;2.63;;;;;;;23.93;41.52;99459.91;12214374;19;20014;-78
2022/09/12 17:09:03;;;;;;;5.95;2.70;;;;;;;23.74;43.30;99452.00;12206082;19;20706;-78
2022/09/12 17:13:05;;;;;;;4.50;3.20;;;;;;;23.49;44.76;99456.69;12227716;19;20487;-80
2022/09/12 17:17:13;;;;;;;5.85;3.13;;;;;;;23.21;46.48;99457.25;12226968;19;20002;-79
2022/09/12 17:21:18;;;;;;;4.20;2.70;;;;;;;22.95;47.37;99460.25;12203414;19;20007;-78
2022/09/12 17:25:26;;;;;;;4.45;2.70;;;;;;;22.71;48.89;99456.06;12219357;19;20007;-79
2022/09/12 17:29:33;;;;;;;5.95;2.97;;;;;;;22.56;49.67;99456.66;12216899;19;20048;-79
2022/09/12 17:33:38;;;;;;;5.50;2.58;;;;;;;22.48;49.93;99463.13;12199013;19;20455;-79
2022/09/12 17:37:47;;;;;;;4.20;2.60;;;;;;;22.23;51.25;99457.31;12224580;19;20006;-78
2022/09/12 17:42:03;;;;;;;5.63;2.70;;;;;;;21.93;51.99;99464.00;12205871;19;20014;-78
2022/09/12 17:46:19;;;;;;;8.18;2.78;;;;;;;21.67;52.90;99472.44;12220137;19;20437;-78
2022/09/12 17:50:27;;;;;;;8.00;2.75;;;;;;;21.40;54.58;99463.22;12239922;19;20010;-81
2022/09/12 17:54:45;;;;;;;5.88;2.83;;;;;;;21.18;55.56;99464.19;12209247;19;20082;-82
2022/09/12 17:58:55;;;;;;;7.47;3.35;;;;;;;20.93;56.30;99463.81;12221651;19;20014;-82
2022/09/12 18:02:58;;;;;;;6.47;3.17;;;;;;;20.77;57.67;99471.06;12200715;19;20472;-81
2022/09/12 18:07:09;;;;;;;7.63;3.13;;;;;;;20.58;59.66;99474.13;12220192;19;20014;-81
2022/09/12 18:11:11;;;;;;;8.85;2.97;;;;;;;20.40;60.17;99469.59;12224837;19;20024;-82
2022/09/12 18:15:16;;;;;;;5.15;2.97;;;;;;;20.24;60.90;99463.63;12198999;19;20019;-81
2022/09/12 18:19:23;;;;;;;7.95;3.25;;;;;;;20.09;61.43;99469.63;12222539;19;20102;-83
2022/09/12 18:23:28;;;;;;;5.75;3.05;;;;;;;19.95;61.75;99469.72;12228593;19;20014;-82
2022/09/12 18:27:35;;;;;;;6.05;3.03;;;;;;;19.84;62.48;99463.59;12201822;19;20011;-82
2022/09/12 18:31:40;;;;;;;5.90;2.88;;;;;;;19.72;62.66;99471.72;12233552;19;20011;-82
2022/09/12 18:35:45;;;;;;;7.78;2.83;;;;;;;19.62;63.56;99474.75;12225292;19;20010;-82
2022/09/12 18:39:50;;;;;;;6.20;2.70;;;;;;;19.49;64.47;99466.13;12202504;19;20187;-84
2022/09/12 18:44:02;;;;;;;6.72;2.97;;;;;;;19.39;64.93;99466.34;12221366;19;20364;-80
2022/09/12 18:48:07;;;;;;;9.52;3.35;;;;;;;19.27;65.68;99471.69;12201424;19;20003;-80
2022/09/12 18:52:09;;;;;;;4.25;3.10;;;;;;;19.16;65.87;99475.88;12221287;19;20007;-81
2022/09/12 18:56:27;;;;;;;4.78;2.97;;;;;;;19.09;66.25;99465.13;12213483;19;20137;-82
2022/09/12 19:00:29;;;;;;;4.25;2.90;;;;;;;19.01;66.69;99452.75;12195756;19;20018;-82
2022/09/12 19:04:57;;;;;;;9.95;3.17;;;;;;;18.96;67.05;99461.22;12218316;19;20499;-83
2022/09/12 19:09:00;;;;;;;6.03;2.90;;;;;;;18.86;67.94;99456.72;12195281;19;20063;-82
2022/09/12 19:13:10;;;;;;;5.20;3.25;;;;;;;18.78;68.75;99465.00;12219708;19;20003;-83